Flight Track Log - Related Links

Times and Time Zones

All times are in EDT time to prevent confusion due to time zone crossing. See the AAR8731 flight status page for this flight to view local times or setup timezone preferences in your user account.

Time Position Orientation Groundspeed Altitude Reporting Facility
EDT Latitude Longitude Course Direction KTS MPH feet Rate Location/Type
Sun 06:33:18 PM 37.5808 126.7650 360° North 167 192 2,100  Level FlightAware ADS-B
Sun 06:34:15 PM 37.6110 126.7238 313° West 219 252 3,900 1,973 Climbing FlightAware ADS-B
Sun 06:34:31 PM 37.6198 126.7063 360° North 243 280 4,500 2,449 Climbing FlightAware ADS-B
Sun 06:35:04 PM 37.6111 126.6610 360° North 251 289 5,900 2,809 Climbing FlightAware ADS-B
Sun 06:35:18 PM 37.5995 126.6452 360° North 275 316 6,700 3,522 Climbing FlightAware ADS-B
Sun 06:35:50 PM 37.5694 126.6049 227° Southwest 282 325 8,600 3,280 Climbing FlightAware ADS-B
Sun 06:36:33 PM 37.5289 126.5561 360° North 301 346 10,800 2,211 Climbing FlightAware ADS-B
Sun 06:37:06 PM 37.5005 126.5467 360° North 301 346 11,400 2,486 Climbing FlightAware ADS-B
Sun 06:38:53 PM 37.2917 126.6052 360° North 363 418 16,600 2,773 Climbing FlightAware ADS-B
Sun 06:39:18 PM 37.2526 126.6181 360° North 368 423 17,500 1,742 Climbing FlightAware ADS-B
Sun 06:39:55 PM 37.1765 126.6431 166° South 399 459 18,400 1,636 Climbing FlightAware ADS-B
Sun 06:40:02 PM 37.1633 126.6476 360° North 400 460 18,700 2,571 Climbing FlightAware ADS-B
Sun 06:42:00 PM 37.0142 126.7116 161° South  Level Estimated
Sun 06:43:00 PM 36.9384 126.7440 161° South  Level Estimated
Sun 06:44:00 PM 36.8625 126.7764 161° South  Level Estimated
Sun 06:45:00 PM 36.7867 126.8087 161° South  Level Estimated
Sun 06:46:00 PM 36.7108 126.8409 161° South  Level Estimated
Sun 06:47:00 PM 36.6349 126.8731 161° South  Level Estimated
Sun 06:48:00 PM 36.5590 126.9052 161° South  Level Estimated
Sun 06:49:00 PM 36.4832 126.9372 161° South  Level Estimated
Sun 06:50:00 PM 36.4073 126.9692 161° South  Level Estimated
Sun 06:51:00 PM 36.3313 127.0011 161° South  Level Estimated
Sun 06:52:00 PM 36.2554 127.0330 161° South  Level Estimated
Sun 06:53:00 PM 36.1795 127.0648 161° South  Level Estimated
Sun 06:54:00 PM 36.1036 127.0965 161° South  Level Estimated
Sun 06:55:00 PM 36.0276 127.1282 161° South  Level Estimated
Sun 06:56:00 PM 35.9517 127.1598 161° South  Level Estimated
Sun 06:57:00 PM 35.8758 127.1913 161° South  Level Estimated
Sun 06:58:00 PM 35.7998 127.2228 161° South  Level Estimated
Sun 06:59:00 PM 35.7238 127.2542 161° South  Level Estimated
Sun 07:00:00 PM 35.6478 127.2856 161° South  Level Estimated
Sun 07:01:00 PM 35.5718 127.3169 161° South  Level Estimated
Sun 07:02:00 PM 35.4958 127.3481 161° South  Level Estimated
Sun 07:03:00 PM 35.4198 127.3793 162° South  Level Estimated
Sun 07:04:00 PM 35.3438 127.4105 162° South  Level Estimated
Sun 07:05:00 PM 35.2678 127.4415 162° South  Level Estimated
Sun 07:06:00 PM 35.1918 127.4725 162° South  Level Estimated
Sun 07:07:00 PM 35.1158 127.5035 162° South  Level Estimated
Sun 07:08:00 PM 35.0397 127.5344 162° South  Level Estimated
Sun 07:09:00 PM 34.9637 127.5652 162° South  Level Estimated
Sun 07:10:00 PM 34.8876 127.5960 162° South  Level Estimated
Sun 07:11:00 PM 34.8398 127.6153 162° South  Level Estimated
Sun 07:12:00 PM 34.8398 127.6153 North  Level Estimated
Sun 07:13:00 PM 34.8398 127.6153 North  Level Estimated
Sun 07:14:00 PM 34.8398 127.6153 North  Level Estimated
Sun 07:15:00 PM 34.8398 127.6153 North  Level Estimated
Sun 07:16:00 PM 34.8398 127.6153 North  Level Estimated
Sun 07:17:00 PM 34.8398 127.6153 North  Level Estimated
Sun 07:18:00 PM 34.8398 127.6153 North  Level Estimated
Sun 07:19:00 PM 34.8398 127.6153 North  Level Estimated
Sun 07:20:00 PM 34.8398 127.6153 North  Level Estimated
Sun 07:21:00 PM 34.8398 127.6153 North  Level Estimated
Sun 07:22:00 PM 34.8398 127.6153 North  Level Estimated
Sun 07:23:00 PM 34.8398 127.6153 North  Level Estimated
Sun 07:24:00 PM 34.8398 127.6153 North  Level Estimated

Login

Don't have an account? Register now (free) for customized features, flight alerts, and more!